Time;durP1;ratioP1;P1;durP2;ratioP2;P2;SDS_P1;SDS_P2;PMS_P1;PMS_P2;Temp;Humidity;BMP_temperature;BMP_pressure;BME280_temperature;BME280_humidity;BME280_pressure;Samples;Min_cycle;Max_cycle;Signal;HPM_P1;HPM_P2
2021/12/23 00:01:32;;;;;;;18.85;11.48;;;0.20;99.90;;;;;;5061727;28;20115;-72
2021/12/23 00:03:58;;;;;;;18.15;10.90;;;0.10;99.90;;;;;;5109467;28;20043;-72
2021/12/23 00:06:24;;;;;;;15.80;9.82;;;0.20;99.90;;;;;;5092701;28;20036;-72
2021/12/23 00:08:50;;;;;;;18.27;10.80;;;0.20;99.90;;;;;;5109917;28;20408;-72
2021/12/23 00:11:15;;;;;;;19.08;10.30;;;0.20;99.90;;;;;;5092695;28;20095;-73
2021/12/23 00:13:49;;;;;;;21.90;11.85;;;0.20;99.90;;;;;;5094660;28;20534;-74
2021/12/23 00:16:29;;;;;;;17.20;10.82;;;0.20;99.90;;;;;;5094455;28;20050;-73
2021/12/23 00:19:01;;;;;;;15.82;10.20;;;0.20;99.90;;;;;;5130096;27;20555;-73
2021/12/23 00:24:10;;;;;;;17.75;10.73;;;0.20;99.90;;;;;;5095817;28;20107;-74
2021/12/23 00:26:36;;;;;;;19.83;11.38;;;0.20;99.90;;;;;;5130033;27;20082;-74
2021/12/23 00:29:02;;;;;;;20.50;10.98;;;0.50;99.90;;;;;;5095299;28;20142;-73
2021/12/23 00:31:28;;;;;;;20.13;11.23;;;0.20;99.90;;;;;;5129415;27;20088;-72
2021/12/23 00:33:53;;;;;;;16.55;10.70;;;0.30;99.90;;;;;;5129747;27;20047;-72
2021/12/23 00:36:19;;;;;;;18.40;11.40;;;0.30;99.90;;;;;;5096201;28;20046;-73
2021/12/23 00:38:51;;;;;;;17.35;10.23;;;0.30;99.90;;;;;;5129523;27;20071;-73
2021/12/23 00:41:19;;;;;;;20.98;11.63;;;0.30;99.90;;;;;;5095587;28;20047;-73
2021/12/23 00:43:45;;;;;;;19.75;11.88;;;0.10;99.90;;;;;;5096282;28;20040;-74
2021/12/23 00:46:11;;;;;;;17.88;10.82;;;0.30;99.90;;;;;;5095880;28;20143;-75
2021/12/23 00:48:39;;;;;;;17.63;10.88;;;0.30;99.90;;;;;;5078925;28;20118;-74
2021/12/23 00:51:05;;;;;;;17.23;10.63;;;0.30;99.90;;;;;;5095921;28;20066;-75
2021/12/23 00:53:40;;;;;;;18.38;10.98;;;0.30;99.90;;;;;;5095493;28;20622;-75
2021/12/23 00:56:11;;;;;;;17.90;10.90;;;0.30;99.90;;;;;;5095670;28;20126;-75
2021/12/23 00:58:36;;;;;;;19.38;12.32;;;0.30;99.90;;;;;;5084873;28;20061;-74
2021/12/23 01:01:02;;;;;;;17.90;11.05;;;0.30;99.90;;;;;;5079737;28;20492;-74
2021/12/23 01:03:29;;;;;;;18.90;12.43;;;0.30;99.90;;;;;;5078536;28;20484;-74
2021/12/23 01:05:56;;;;;;;18.15;11.05;;;0.30;99.90;;;;;;5092970;28;20043;-74
2021/12/23 01:08:22;;;;;;;20.42;11.25;;;0.30;99.90;;;;;;5091490;28;20044;-74
2021/12/23 01:10:50;;;;;;;19.75;9.63;;;0.30;99.90;;;;;;5108729;28;20040;-74
2021/12/23 01:13:18;;;;;;;18.63;10.13;;;0.30;99.90;;;;;;5108637;28;20048;-75
2021/12/23 01:18:36;;;;;;;19.45;11.95;;;0.20;99.90;;;;;;5095093;28;20078;-74
2021/12/23 01:21:16;;;;;;;18.65;11.00;;;0.20;99.90;;;;;;5094818;28;20118;-74
2021/12/23 01:23:50;;;;;;;17.77;11.15;;;0.00;99.90;;;;;;5095150;28;20054;-74
2021/12/23 01:26:19;;;;;;;20.35;11.30;;;0.10;99.90;;;;;;5078227;28;20035;-74
2021/12/23 01:28:50;;;;;;;18.30;11.15;;;0.20;99.90;;;;;;5083303;28;20059;-74
2021/12/23 01:31:16;;;;;;;19.98;12.13;;;0.20;99.90;;;;;;5102133;28;20131;-74
2021/12/23 01:33:42;;;;;;;17.25;10.70;;;0.20;99.90;;;;;;5093857;28;20130;-75
2021/12/23 01:36:08;;;;;;;18.73;11.20;;;0.20;99.90;;;;;;5077834;28;20102;-75
2021/12/23 01:38:34;;;;;;;18.38;10.57;;;0.20;99.90;;;;;;5094884;28;20071;-75
2021/12/23 01:41:00;;;;;;;18.90;12.23;;;0.20;99.90;;;;;;5094502;28;20039;-74
2021/12/23 01:43:26;;;;;;;20.60;10.50;;;0.20;99.90;;;;;;5073640;28;20496;-75
2021/12/23 01:45:52;;;;;;;19.33;11.43;;;0.20;99.90;;;;;;5074705;28;20104;-73
2021/12/23 01:48:19;;;;;;;16.20;10.30;;;0.10;99.90;;;;;;5083199;28;20043;-74
2021/12/23 01:50:45;;;;;;;17.75;10.13;;;0.20;99.90;;;;;;5128743;27;20164;-74
2021/12/23 01:53:11;;;;;;;16.52;10.15;;;0.30;99.90;;;;;;5128870;27;20047;-74
2021/12/23 01:55:38;;;;;;;17.75;11.20;;;0.30;99.90;;;;;;5077327;28;20054;-74
2021/12/23 01:58:07;;;;;;;21.88;11.02;;;1.20;99.90;;;;;;5076946;28;20044;-74
2021/12/23 02:00:36;;;;;;;15.15;9.55;;;0.30;99.90;;;;;;5093026;28;20047;-75
2021/12/23 02:03:03;;;;;;;16.08;10.57;;;1.70;99.90;;;;;;5093808;28;20036;-74
2021/12/23 02:05:30;;;;;;;19.27;10.52;;;0.20;99.90;;;;;;5094129;28;20040;-75
2021/12/23 02:07:57;;;;;;;16.20;10.18;;;0.20;99.90;;;;;;5092501;28;20035;-74
2021/12/23 02:10:22;;;;;;;18.77;12.20;;;0.20;99.90;;;;;;5094437;28;20067;-74
2021/12/23 02:12:50;;;;;;;16.33;10.95;;;0.20;99.90;;;;;;5127651;28;20066;-74
2021/12/23 02:15:17;;;;;;;17.92;11.30;;;0.20;99.90;;;;;;5074490;28;20072;-74
2021/12/23 02:17:44;;;;;;;18.40;10.77;;;0.30;99.90;;;;;;5074096;28;20118;-75
2021/12/23 02:20:13;;;;;;;18.52;11.18;;;0.30;99.90;;;;;;5074812;28;20036;-75
2021/12/23 02:22:40;;;;;;;16.35;10.32;;;0.30;99.90;;;;;;5077528;28;20046;-75
2021/12/23 02:25:08;;;;;;;21.15;11.10;;;0.30;99.90;;;;;;5094206;28;20040;-75
2021/12/23 02:27:34;;;;;;;17.30;10.60;;;0.30;99.90;;;;;;5094116;28;20042;-74
2021/12/23 02:29:59;;;;;;;17.63;11.80;;;0.30;99.90;;;;;;5093779;28;20051;-74
2021/12/23 02:32:25;;;;;;;17.23;10.73;;;0.30;99.90;;;;;;5093858;28;20055;-74
2021/12/23 02:34:51;;;;;;;19.63;11.82;;;0.30;99.90;;;;;;5093930;28;20118;-75
2021/12/23 02:37:16;;;;;;;18.13;10.90;;;0.30;99.90;;;;;;5076591;28;20048;-75
2021/12/23 02:39:43;;;;;;;16.63;10.35;;;0.30;99.90;;;;;;5098346;28;20031;-74
2021/12/23 02:42:09;;;;;;;19.08;11.38;;;0.30;99.90;;;;;;5080745;28;20058;-74
2021/12/23 02:44:34;;;;;;;18.73;10.55;;;0.30;99.90;;;;;;5097598;28;20492;-75
2021/12/23 02:47:00;;;;;;;18.25;10.68;;;0.30;99.90;;;;;;5121856;27;20055;-75
2021/12/23 02:49:26;;;;;;;20.70;10.85;;;0.30;99.90;;;;;;5084825;28;20487;-74
2021/12/23 02:51:52;;;;;;;16.05;10.27;;;0.30;99.90;;;;;;5097741;28;20036;-74
2021/12/23 02:54:18;;;;;;;17.92;11.07;;;0.20;99.90;;;;;;5097646;28;20039;-74
2021/12/23 02:56:44;;;;;;;19.15;11.35;;;0.30;99.90;;;;;;5097544;28;20084;-74
2021/12/23 02:59:10;;;;;;;21.40;11.85;;;0.30;99.90;;;;;;5080519;28;20046;-74
2021/12/23 03:01:37;;;;;;;20.15;10.77;;;0.30;99.90;;;;;;5080866;28;20101;-74
2021/12/23 03:04:03;;;;;;;16.50;10.25;;;0.30;99.90;;;;;;5097555;28;20124;-74
2021/12/23 03:06:29;;;;;;;18.60;11.52;;;0.30;99.90;;;;;;5097471;28;20456;-74
2021/12/23 03:09:03;;;;;;;19.23;11.10;;;0.30;99.90;;;;;;5097799;28;20071;-75
2021/12/23 03:11:30;;;;;;;18.52;10.80;;;0.30;99.90;;;;;;5080514;28;20050;-74
2021/12/23 03:13:57;;;;;;;16.80;10.70;;;0.30;99.90;;;;;;5080336;28;20134;-75
2021/12/23 03:16:29;;;;;;;20.25;11.20;;;0.30;99.90;;;;;;5080250;28;20044;-74
2021/12/23 03:18:55;;;;;;;18.05;10.45;;;0.30;99.90;;;;;;5067016;28;20396;-74
2021/12/23 03:21:21;;;;;;;18.10;10.35;;;0.30;99.90;;;;;;5093318;28;20028;-74
2021/12/23 03:23:47;;;;;;;16.08;10.43;;;0.30;99.90;;;;;;5093834;28;20036;-74
2021/12/23 03:26:13;;;;;;;19.42;10.93;;;0.30;99.90;;;;;;5094694;28;20035;-74
2021/12/23 03:28:40;;;;;;;17.02;11.65;;;0.30;99.90;;;;;;5097224;28;20515;-71
2021/12/23 03:31:06;;;;;;;20.08;11.05;;;0.30;99.90;;;;;;5079950;28;20039;-71
2021/12/23 03:33:32;;;;;;;15.23;10.45;;;;;;;;;;5079460;28;20096;-74
2021/12/23 03:35:57;;;;;;;18.20;11.48;;;0.30;99.90;;;;;;5095430;28;20047;-72
2021/12/23 03:38:24;;;;;;;19.33;12.00;;;0.30;99.90;;;;;;5080305;28;20044;-73
2021/12/23 03:40:50;;;;;;;19.00;11.43;;;0.30;99.90;;;;;;5097186;28;20536;-78
2021/12/23 03:43:17;;;;;;;18.30;11.70;;;0.30;99.90;;;;;;5080369;28;20435;-81
2021/12/23 03:45:44;;;;;;;18.58;11.10;;;0.30;99.90;;;;;;5097200;28;20039;-73
2021/12/23 03:48:12;;;;;;;20.38;12.00;;;0.30;99.90;;;;;;5096353;28;20089;-74
2021/12/23 03:50:38;;;;;;;17.60;10.65;;;0.30;99.90;;;;;;5096950;28;20551;-77
2021/12/23 03:53:03;;;;;;;18.48;10.98;;;0.30;99.90;;;;;;5096815;28;20043;-75
2021/12/23 03:55:30;;;;;;;15.93;10.13;;;0.30;99.90;;;;;;5096121;28;20495;-77
2021/12/23 03:57:57;;;;;;;18.52;11.18;;;0.30;99.90;;;;;;5096954;28;20035;-80
2021/12/23 04:00:24;;;;;;;20.35;11.32;;;0.30;99.90;;;;;;5096563;28;20118;-76
2021/12/23 04:02:51;;;;;;;21.55;11.35;;;0.30;99.90;;;;;;5096073;28;20043;-77
2021/12/23 04:05:17;;;;;;;18.50;11.25;;;0.30;99.90;;;;;;5097183;28;20064;-77
2021/12/23 04:07:44;;;;;;;20.83;11.43;;;0.40;99.90;;;;;;5096813;28;20035;-78
2021/12/23 04:10:15;;;;;;;22.20;12.18;;;0.30;99.90;;;;;;5079619;28;20039;-72
2021/12/23 04:12:42;;;;;;;18.80;11.90;;;0.40;99.90;;;;;;5096566;28;20065;-74
2021/12/23 04:15:08;;;;;;;22.55;12.82;;;0.40;99.90;;;;;;5093967;28;20040;-72
2021/12/23 04:17:34;;;;;;;18.80;10.77;;;0.40;99.90;;;;;;5080788;28;20035;-75
2021/12/23 04:20:14;;;;;;;17.98;10.93;;;0.50;99.90;;;;;;5079773;28;20098;-76
2021/12/23 04:22:42;;;;;;;18.27;10.90;;;0.50;99.90;;;;;;5096222;28;20353;-74
2021/12/23 04:25:08;;;;;;;17.58;10.90;;;0.50;99.90;;;;;;5095980;28;20384;-77
2021/12/23 04:27:34;;;;;;;18.75;10.35;;;0.50;99.90;;;;;;5078993;28;20118;-79
2021/12/23 04:30:00;;;;;;;22.67;13.20;;;0.50;99.90;;;;;;5095513;28;20150;-70
2021/12/23 04:32:27;;;;;;;17.77;11.30;;;0.60;99.90;;;;;;5095117;28;20094;-77
2021/12/23 04:34:53;;;;;;;16.73;11.30;;;0.40;99.90;;;;;;5095666;28;20113;-76
2021/12/23 04:37:19;;;;;;;22.52;12.43;;;1.10;99.90;;;;;;5095758;28;20441;-75
2021/12/23 04:39:44;;;;;;;19.83;11.82;;;0.60;99.90;;;;;;5096015;28;20039;-74
2021/12/23 04:42:10;;;;;;;21.65;12.27;;;0.60;99.90;;;;;;5095977;28;20031;-74
2021/12/23 04:44:35;;;;;;;20.23;11.75;;;0.70;99.90;;;;;;5095628;28;20262;-74
2021/12/23 04:47:01;;;;;;;20.95;12.65;;;0.70;99.90;;;;;;5094410;28;20391;-76
2021/12/23 04:49:27;;;;;;;21.48;12.25;;;0.70;99.90;;;;;;5095783;28;20522;-75
2021/12/23 04:51:52;;;;;;;18.42;11.63;;;0.70;99.90;;;;;;5095564;28;20449;-75
2021/12/23 04:54:18;;;;;;;19.15;11.77;;;0.70;99.90;;;;;;5095545;28;20518;-76
2021/12/23 04:56:44;;;;;;;21.15;12.60;;;0.70;99.90;;;;;;5113008;28;20044;-76
2021/12/23 04:59:09;;;;;;;18.20;11.32;;;0.70;99.90;;;;;;5095857;28;20523;-76
2021/12/23 05:01:35;;;;;;;20.40;11.50;;;0.70;99.90;;;;;;5128598;27;20042;-76
2021/12/23 05:04:01;;;;;;;18.40;12.65;;;0.60;99.90;;;;;;5078643;28;20399;-75
2021/12/23 05:06:27;;;;;;;18.75;11.38;;;0.70;99.90;;;;;;5095438;28;20471;-76
2021/12/23 05:08:53;;;;;;;23.25;13.18;;;0.70;99.90;;;;;;5078563;28;20047;-77
2021/12/23 05:11:18;;;;;;;20.25;10.85;;;0.70;99.90;;;;;;5095746;28;20369;-76
2021/12/23 05:13:47;;;;;;;19.50;11.27;;;0.70;99.90;;;;;;5078256;28;20042;-77
2021/12/23 05:16:14;;;;;;;21.17;11.40;;;0.70;99.90;;;;;;5077866;28;20067;-77
2021/12/23 05:18:39;;;;;;;17.70;11.52;;;0.60;99.90;;;;;;5095175;28;20496;-76
2021/12/23 05:21:05;;;;;;;18.60;11.63;;;0.70;99.90;;;;;;5095254;28;20048;-76
2021/12/23 05:23:32;;;;;;;20.00;12.40;;;0.70;99.90;;;;;;5095154;28;20143;-76
2021/12/23 05:25:57;;;;;;;16.27;11.13;;;0.70;99.90;;;;;;5094983;28;20085;-76
2021/12/23 05:28:23;;;;;;;20.13;12.20;;;0.70;99.90;;;;;;5077887;28;20047;-76
2021/12/23 05:30:49;;;;;;;23.05;11.93;;;0.70;99.90;;;;;;5078205;28;20035;-76
2021/12/23 05:33:14;;;;;;;21.52;12.50;;;0.70;99.90;;;;;;5095225;28;20039;-76
2021/12/23 05:35:40;;;;;;;20.05;12.63;;;0.70;99.90;;;;;;5078502;28;20551;-75
2021/12/23 05:38:06;;;;;;;21.05;12.30;;;0.70;99.90;;;;;;5094647;28;20083;-76
2021/12/23 05:40:32;;;;;;;23.30;12.23;;;0.70;99.90;;;;;;5094650;28;20075;-75
2021/12/23 05:42:58;;;;;;;21.50;12.77;;;0.70;99.90;;;;;;5077655;28;20126;-75
2021/12/23 05:45:24;;;;;;;20.10;13.43;;;0.70;99.90;;;;;;5077398;28;20469;-76
2021/12/23 05:47:50;;;;;;;19.92;12.15;;;0.70;99.90;;;;;;5078055;28;20038;-75
2021/12/23 05:50:18;;;;;;;21.30;13.18;;;0.80;99.90;;;;;;5077622;28;20392;-75
2021/12/23 05:52:44;;;;;;;21.25;13.70;;;0.70;99.90;;;;;;5094876;28;20044;-74
2021/12/23 05:55:12;;;;;;;19.95;12.00;;;0.70;99.90;;;;;;5094014;28;20408;-74
2021/12/23 05:57:39;;;;;;;23.92;14.00;;;0.30;99.90;;;;;;5094528;28;20169;-76
2021/12/23 06:00:10;;;;;;;20.40;12.85;;;0.80;99.90;;;;;;5074474;28;20038;-75
2021/12/23 06:02:36;;;;;;;20.13;12.80;;;0.80;99.90;;;;;;5074167;28;20123;-75
2021/12/23 06:05:04;;;;;;;23.05;14.23;;;0.80;99.90;;;;;;5074273;28;20078;-76
2021/12/23 06:07:29;;;;;;;19.35;12.27;;;0.80;99.90;;;;;;5074163;28;20044;-76
2021/12/23 06:09:55;;;;;;;23.67;13.52;;;0.80;99.90;;;;;;5107837;28;20050;-75
2021/12/23 06:12:20;;;;;;;22.70;13.65;;;0.80;99.90;;;;;;5073384;28;20044;-75
2021/12/23 06:14:46;;;;;;;21.30;13.25;;;0.80;99.90;;;;;;5074153;28;20048;-75
2021/12/23 06:17:12;;;;;;;24.77;13.80;;;0.80;99.90;;;;;;5093258;28;20044;-74
2021/12/23 06:19:37;;;;;;;25.52;13.38;;;0.80;99.90;;;;;;5094981;28;20046;-75
2021/12/23 06:22:03;;;;;;;27.08;14.75;;;0.80;99.90;;;;;;5093906;28;20445;-75
2021/12/23 06:24:29;;;;;;;24.40;13.63;;;0.80;99.90;;;;;;5077558;28;20039;-76
2021/12/23 06:26:54;;;;;;;22.48;14.05;;;0.80;99.90;;;;;;5093780;28;20040;-76
2021/12/23 06:29:20;;;;;;;23.52;13.02;;;0.80;99.90;;;;;;5077293;28;20097;-76
2021/12/23 06:31:46;;;;;;;23.50;14.00;;;0.70;99.90;;;;;;5094202;28;20047;-76
2021/12/23 06:34:11;;;;;;;20.27;13.02;;;0.80;99.90;;;;;;5094532;28;20051;-75
2021/12/23 06:36:37;;;;;;;22.00;13.57;;;0.80;99.90;;;;;;5093992;28;20036;-75
2021/12/23 06:39:05;;;;;;;19.67;12.80;;;0.80;99.90;;;;;;5093866;28;20046;-76
2021/12/23 06:41:31;;;;;;;24.85;13.40;;;0.80;99.90;;;;;;5093684;28;20053;-75
2021/12/23 06:43:57;;;;;;;21.58;12.80;;;0.70;99.90;;;;;;5094153;28;20031;-75
2021/12/23 06:46:22;;;;;;;21.05;13.63;;;0.70;99.90;;;;;;5077260;28;20104;-75
2021/12/23 06:48:48;;;;;;;23.00;13.60;;;0.70;99.90;;;;;;5094194;28;20118;-76
2021/12/23 06:51:14;;;;;;;20.92;13.18;;;0.70;99.90;;;;;;5093872;28;20130;-76
2021/12/23 06:53:39;;;;;;;23.17;12.93;;;0.70;99.90;;;;;;5077249;28;20043;-76
2021/12/23 06:56:05;;;;;;;23.55;14.80;;;0.60;99.90;;;;;;5093293;28;20051;-75
2021/12/23 06:58:32;;;;;;;24.20;14.52;;;0.70;99.90;;;;;;5127842;28;20032;-75
2021/12/23 07:00:58;;;;;;;26.35;14.65;;;0.70;99.90;;;;;;5093961;28;20043;-75
2021/12/23 07:03:31;;;;;;;28.50;15.25;;;0.70;99.90;;;;;;5077059;28;20032;-75
2021/12/23 07:06:04;;;;;;;22.70;13.73;;;0.70;99.90;;;;;;5093067;28;20555;-74
2021/12/23 07:08:31;;;;;;;22.65;13.77;;;0.70;99.90;;;;;;5077062;28;20088;-75
2021/12/23 07:10:56;;;;;;;24.05;13.93;;;0.70;99.90;;;;;;5092767;28;20408;-75
2021/12/23 07:13:22;;;;;;;22.83;15.13;;;0.60;99.90;;;;;;5093361;28;20031;-74
2021/12/23 07:15:48;;;;;;;22.08;13.43;;;0.70;99.90;;;;;;5127931;28;20040;-75
2021/12/23 07:18:14;;;;;;;23.55;14.55;;;0.60;99.90;;;;;;5093151;28;20079;-75
2021/12/23 07:20:39;;;;;;;24.52;14.20;;;0.60;99.90;;;;;;5077358;28;20126;-76
2021/12/23 07:23:05;;;;;;;24.15;14.57;;;0.70;99.90;;;;;;5093780;28;20044;-76
2021/12/23 07:25:31;;;;;;;26.70;14.88;;;0.60;99.90;;;;;;5097111;28;20036;-76
2021/12/23 07:27:57;;;;;;;22.38;14.00;;;0.60;99.90;;;;;;5079975;28;20556;-76
2021/12/23 07:30:23;;;;;;;25.83;15.15;;;;;;;;;;5080397;28;20054;-76
2021/12/23 07:32:50;;;;;;;24.80;14.93;;;0.70;99.90;;;;;;5097105;28;20066;-75
2021/12/23 07:35:17;;;;;;;23.73;14.43;;;0.70;99.90;;;;;;5097073;28;20049;-76
2021/12/23 07:37:43;;;;;;;21.45;13.95;;;0.60;99.90;;;;;;5097399;28;20071;-76
2021/12/23 07:40:13;;;;;;;23.92;13.75;;;0.70;99.90;;;;;;5097116;28;20038;-76
2021/12/23 07:42:42;;;;;;;23.70;14.30;;;0.70;99.90;;;;;;5079981;28;20101;-72
2021/12/23 07:45:08;;;;;;;28.35;14.90;;;0.60;99.90;;;;;;5097280;28;20027;-73
2021/12/23 07:47:35;;;;;;;22.42;13.98;;;0.70;99.90;;;;;;5096350;28;20484;-74
2021/12/23 07:50:01;;;;;;;27.20;15.77;;;0.70;99.90;;;;;;5065041;28;20071;-74
2021/12/23 07:52:26;;;;;;;27.48;16.42;;;0.70;99.90;;;;;;5078066;28;20540;-74
2021/12/23 07:54:52;;;;;;;25.10;15.77;;;0.60;99.90;;;;;;5093779;28;20039;-74
2021/12/23 07:57:18;;;;;;;25.55;15.63;;;0.70;99.90;;;;;;5094977;28;20047;-74
2021/12/23 07:59:43;;;;;;;26.90;15.85;;;0.70;99.90;;;;;;5095449;28;20126;-74
2021/12/23 08:02:09;;;;;;;28.35;15.60;;;0.60;99.90;;;;;;5092865;28;20035;-75
2021/12/23 08:04:35;;;;;;;27.05;15.88;;;0.70;99.90;;;;;;5095738;28;20050;-75
2021/12/23 08:07:03;;;;;;;24.95;15.98;;;0.70;99.90;;;;;;5095347;28;20553;-75
2021/12/23 08:09:28;;;;;;;25.85;15.95;;;0.70;99.90;;;;;;5094351;28;20050;-74
2021/12/23 08:11:54;;;;;;;24.60;16.75;;;1.00;99.90;;;;;;5095583;28;20388;-75
2021/12/23 08:14:20;;;;;;;25.67;15.57;;;0.60;99.90;;;;;;5093831;28;20052;-77
2021/12/23 08:16:46;;;;;;;27.58;16.08;;;0.60;99.90;;;;;;5095952;28;20075;-75
2021/12/23 08:19:12;;;;;;;25.23;15.82;;;0.60;99.90;;;;;;5094442;28;20035;-74
2021/12/23 08:21:37;;;;;;;24.98;16.45;;;0.60;99.90;;;;;;5077864;28;20039;-75
2021/12/23 08:24:03;;;;;;;29.58;19.35;;;0.60;99.90;;;;;;5095019;28;20042;-75
2021/12/23 08:26:29;;;;;;;29.40;16.95;;;0.60;99.90;;;;;;5094616;28;20464;-74
2021/12/23 08:28:57;;;;;;;26.70;16.80;;;0.60;99.90;;;;;;5094484;28;20580;-76
2021/12/23 08:31:23;;;;;;;29.27;18.33;;;0.60;99.90;;;;;;5095384;28;20040;-77
2021/12/23 08:33:49;;;;;;;33.00;18.08;;;0.60;99.90;;;;;;5095357;28;20065;-77
2021/12/23 08:36:16;;;;;;;28.98;18.63;;;0.50;99.90;;;;;;5077618;28;20118;-78
2021/12/23 08:38:43;;;;;;;29.45;16.63;;;0.60;99.90;;;;;;5095303;28;20035;-77
2021/12/23 08:41:09;;;;;;;26.67;17.13;;;0.60;99.90;;;;;;5094817;28;20454;-74
2021/12/23 08:43:35;;;;;;;31.17;18.02;;;1.60;99.90;;;;;;5094518;28;20039;-75
2021/12/23 08:46:01;;;;;;;26.08;16.52;;;0.60;99.90;;;;;;5093720;28;20492;-74
2021/12/23 08:48:27;;;;;;;31.30;19.70;;;0.60;99.90;;;;;;5093146;28;20055;-77
2021/12/23 08:50:52;;;;;;;31.38;19.65;;;0.60;99.90;;;;;;5077553;28;20126;-76
2021/12/23 08:53:18;;;;;;;30.08;18.90;;;0.60;99.90;;;;;;5094714;28;20408;-76
2021/12/23 08:55:44;;;;;;;32.38;20.17;;;0.60;99.90;;;;;;5129631;27;20395;-74
2021/12/23 08:58:10;;;;;;;30.52;19.40;;;0.60;99.90;;;;;;5086887;28;20522;-73
2021/12/23 09:00:37;;;;;;;31.23;19.17;;;0.70;99.90;;;;;;5087610;28;20074;-75
2021/12/23 09:03:05;;;;;;;31.48;19.27;;;1.80;99.90;;;;;;5076217;28;20047;-74
2021/12/23 09:05:31;;;;;;;33.10;20.55;;;0.70;99.90;;;;;;5074604;28;20122;-74
2021/12/23 09:07:57;;;;;;;35.97;20.88;;;0.70;99.90;;;;;;5085229;28;20550;-75
2021/12/23 09:10:24;;;;;;;33.47;20.50;;;0.70;99.90;;;;;;5078439;28;20074;-74
2021/12/23 09:12:51;;;;;;;37.63;22.10;;;0.70;99.90;;;;;;5090670;28;20040;-75
2021/12/23 09:15:19;;;;;;;31.80;20.85;;;0.70;99.90;;;;;;5089112;28;20079;-77
2021/12/23 09:17:45;;;;;;;36.28;21.83;;;0.70;99.90;;;;;;5095571;28;20050;-79
2021/12/23 09:20:13;;;;;;;33.30;20.63;;;0.70;99.90;;;;;;5084545;28;20032;-71
2021/12/23 09:22:40;;;;;;;40.42;23.33;;;0.70;99.90;;;;;;5080692;28;20050;-73
2021/12/23 09:25:11;;;;;;;32.20;21.50;;;0.70;99.90;;;;;;5094318;28;20131;-74
2021/12/23 09:27:54;;;;;;;37.90;22.60;;;0.70;99.90;;;;;;5078332;28;20446;-72
2021/12/23 09:33:05;;;;;;;33.55;20.90;;;0.70;99.90;;;;;;5092166;28;20044;-72
2021/12/23 09:35:32;;;;;;;36.45;22.58;;;0.60;99.90;;;;;;5108072;28;20052;-72
2021/12/23 09:38:00;;;;;;;45.35;25.25;;;0.70;99.90;;;;;;5088132;28;20036;-72
2021/12/23 09:40:29;;;;;;;33.63;20.90;;;0.70;99.90;;;;;;5088601;28;20043;-72
2021/12/23 09:42:59;;;;;;;43.53;25.92;;;0.70;99.90;;;;;;5094594;28;20043;-74
2021/12/23 09:45:25;;;;;;;41.97;26.02;;;0.80;99.90;;;;;;5094765;28;20054;-71
2021/12/23 09:47:51;;;;;;;42.28;25.25;;;0.80;99.90;;;;;;5079625;28;20048;-71
2021/12/23 09:50:21;;;;;;;41.53;24.35;;;0.80;99.90;;;;;;5108200;28;20093;-73
2021/12/23 09:52:50;;;;;;;43.20;25.08;;;0.80;99.90;;;;;;5074403;28;20097;-73
2021/12/23 09:55:23;;;;;;;50.50;27.88;;;0.80;99.90;;;;;;5084361;28;20040;-78
2021/12/23 09:57:51;;;;;;;47.05;27.33;;;0.70;99.90;;;;;;5074466;28;20032;-79
2021/12/23 10:00:20;;;;;;;50.92;31.08;;;0.80;99.90;;;;;;5074233;28;20044;-80
2021/12/23 10:02:46;;;;;;;49.85;28.73;;;0.80;99.90;;;;;;5090906;28;20047;-72
2021/12/23 10:05:20;;;;;;;50.45;27.35;;;0.80;99.90;;;;;;5107974;28;20035;-74
2021/12/23 10:07:48;;;;;;;57.13;32.45;;;0.90;99.90;;;;;;5102645;28;20040;-77
2021/12/23 10:10:30;;;;;;;57.55;29.85;;;0.80;99.90;;;;;;5093035;28;20538;-81
2021/12/23 10:38:50;;;;;;;60.72;32.42;;;0.80;99.90;;;;;;5094323;28;20370;-76
2021/12/23 10:41:22;;;;;;;66.20;34.13;;;0.80;99.90;;;;;;5085925;28;20492;-75
2021/12/23 10:43:56;;;;;;;69.22;35.15;;;0.80;99.90;;;;;;5094199;28;20060;-76
2021/12/23 10:46:32;;;;;;;71.38;34.90;;;0.80;99.90;;;;;;5093689;28;20478;-75
2021/12/23 10:49:20;;;;;;;73.65;36.40;;;0.80;99.90;;;;;;5107920;28;20123;-76
2021/12/23 10:52:06;;;;;;;63.92;35.03;;;0.80;99.90;;;;;;5118311;28;20080;-76
2021/12/23 11:00:25;;;;;;;71.55;37.08;;;0.80;99.90;;;;;;5097065;28;20106;-76
2021/12/23 11:03:20;;;;;;;68.78;33.15;;;0.80;99.90;;;;;;5097097;28;20043;-72
2021/12/23 11:06:46;;;;;;;64.88;31.75;;;0.80;99.90;;;;;;5097889;28;20385;-74
2021/12/23 11:11:41;;;;;;;54.80;30.35;;;0.70;99.90;;;;;;5098373;28;20044;-74
2021/12/23 11:41:51;;;;;;;55.38;31.17;;;0.80;99.90;;;;;;5096156;28;20035;-74
2021/12/23 11:44:17;;;;;;;61.10;30.63;;;0.80;99.90;;;;;;5097583;28;20044;-76
2021/12/23 11:46:49;;;;;;;55.85;29.67;;;0.90;99.90;;;;;;5096175;28;20042;-78
2021/12/23 11:49:16;;;;;;;57.03;31.92;;;0.90;99.90;;;;;;5079371;28;20045;-80
2021/12/23 11:51:51;;;;;;;53.17;29.23;;;0.90;99.90;;;;;;5096676;28;20577;-78
2021/12/23 11:54:24;;;;;;;65.45;35.88;;;1.00;99.90;;;;;;5078591;28;20047;-79
2021/12/23 11:56:54;;;;;;;62.35;32.20;;;1.30;99.90;;;;;;5096208;28;20480;-79
2021/12/23 11:59:20;;;;;;;62.25;35.13;;;1.60;99.90;;;;;;5096523;28;20039;-78
2021/12/23 12:01:48;;;;;;;62.97;34.00;;;0.80;99.90;;;;;;5079574;28;20035;-82
2021/12/23 12:04:29;;;;;;;65.78;34.00;;;0.90;99.90;;;;;;5096727;28;20043;-78
2021/12/23 12:06:57;;;;;;;71.82;36.45;;;1.10;99.90;;;;;;5095238;28;20131;-79
2021/12/23 12:09:26;;;;;;;63.80;34.95;;;1.10;99.90;;;;;;5095939;28;20070;-78
2021/12/23 12:12:09;;;;;;;71.53;34.45;;;1.10;99.90;;;;;;5096404;28;20392;-76
2021/12/23 12:14:38;;;;;;;68.00;33.47;;;1.10;99.90;;;;;;5079248;28;20044;-75
2021/12/23 12:17:23;;;;;;;61.90;33.90;;;1.10;99.90;;;;;;5076333;28;20051;-79
2021/12/23 12:20:23;;;;;;;64.95;35.13;;;1.00;99.90;;;;;;5129566;27;20031;-75
2021/12/23 12:23:00;;;;;;;68.32;34.67;;;1.10;99.90;;;;;;5095328;28;20135;-79
2021/12/23 12:25:25;;;;;;;61.70;34.50;;;1.10;99.90;;;;;;5078856;28;20035;-75
2021/12/23 12:27:57;;;;;;;67.00;35.28;;;1.10;99.90;;;;;;5078833;28;20047;-77
2021/12/23 12:30:40;;;;;;;70.05;36.17;;;1.20;99.90;;;;;;5093391;28;20512;-75
2021/12/23 12:33:09;;;;;;;65.15;34.17;;;1.20;99.90;;;;;;5078445;28;20105;-75
2021/12/23 12:35:35;;;;;;;70.65;35.42;;;1.10;99.90;;;;;;5096616;28;20085;-78
2021/12/23 12:38:19;;;;;;;65.65;36.47;;;1.20;99.90;;;;;;5096073;28;20055;-75
2021/12/23 12:40:54;;;;;;;72.53;35.50;;;1.10;99.90;;;;;;5095784;28;20074;-75
2021/12/23 12:43:51;;;;;;;68.15;35.88;;;1.10;99.90;;;;;;5095453;28;20047;-75
2021/12/23 12:46:35;;;;;;;62.95;34.03;;;1.20;99.90;;;;;;5120974;27;20770;-74
2021/12/23 12:49:09;;;;;;;68.07;34.33;;;3.20;99.90;;;;;;5078137;28;20067;-74
2021/12/23 12:51:37;;;;;;;67.43;33.97;;;1.30;99.90;;;;;;5095248;28;20357;-74
2021/12/23 12:54:06;;;;;;;67.47;36.05;;;1.20;99.90;;;;;;5094231;28;20044;-75
2021/12/23 12:56:44;;;;;;;73.38;37.42;;;1.20;99.90;;;;;;5095009;28;20043;-77
2021/12/23 12:59:11;;;;;;;72.15;37.00;;;1.20;99.90;;;;;;5078844;28;20126;-77
2021/12/23 13:01:49;;;;;;;76.55;38.15;;;1.10;99.90;;;;;;5096007;28;20047;-77
2021/12/23 13:04:23;;;;;;;76.32;36.47;;;1.20;99.90;;;;;;5095021;28;20148;-77
2021/12/23 13:06:51;;;;;;;68.37;36.77;;;1.20;99.90;;;;;;5094789;28;20054;-77
2021/12/23 13:09:23;;;;;;;68.10;35.75;;;1.20;99.90;;;;;;5095073;28;20090;-76
2021/12/23 13:11:49;;;;;;;76.22;39.38;;;1.20;99.90;;;;;;5076402;28;20039;-74
2021/12/23 13:14:23;;;;;;;83.45;43.17;;;1.30;99.90;;;;;;5092782;28;20058;-73
2021/12/23 13:16:57;;;;;;;72.55;36.50;;;1.30;99.90;;;;;;5092388;28;20040;-74
2021/12/23 13:19:33;;;;;;;84.00;39.28;;;1.40;99.90;;;;;;5092833;28;20097;-72
2021/12/23 13:22:03;;;;;;;73.07;39.20;;;1.40;99.90;;;;;;5091394;28;20134;-73
2021/12/23 13:24:29;;;;;;;75.82;39.25;;;1.40;99.90;;;;;;5091802;28;20065;-72
2021/12/23 13:26:56;;;;;;;83.82;42.00;;;1.40;99.90;;;;;;5092352;28;20039;-72
2021/12/23 13:29:28;;;;;;;79.82;37.88;;;1.40;99.90;;;;;;5089920;28;20054;-72
2021/12/23 13:31:56;;;;;;;82.47;38.92;;;1.40;99.90;;;;;;5091056;28;20511;-72
2021/12/23 13:34:24;;;;;;;86.43;41.33;;;1.40;99.90;;;;;;5092451;28;20187;-73
2021/12/23 13:37:06;;;;;;;77.20;39.40;;;1.50;99.90;;;;;;5092226;28;20131;-72
2021/12/23 13:39:37;;;;;;;70.10;37.70;;;1.60;99.90;;;;;;5091257;28;20058;-72
2021/12/23 13:42:08;;;;;;;86.10;41.60;;;1.40;99.90;;;;;;5092336;28;20039;-73
2021/12/23 13:44:37;;;;;;;75.93;38.53;;;1.70;99.90;;;;;;5092317;28;20070;-74
2021/12/23 13:47:22;;;;;;;77.70;38.80;;;1.50;99.90;;;;;;5084979;28;20045;-73
2021/12/23 13:49:50;;;;;;;75.32;36.42;;;1.70;99.90;;;;;;5111950;27;20039;-74
2021/12/23 13:52:31;;;;;;;73.55;38.22;;;1.40;99.90;;;;;;5090921;28;20499;-73
2021/12/23 13:55:10;;;;;;;80.20;38.95;;;1.60;99.90;;;;;;5091677;28;20059;-73